createdAt,value
2023-03-11T00:00:47.128Z,12.50
2023-03-11T00:03:16.571Z,12.50
2023-03-11T00:05:46.757Z,8.25
2023-03-11T00:08:17.088Z,11.00
2023-03-11T00:10:47.892Z,10.60
2023-03-11T00:13:16.469Z,17.00
2023-03-11T00:15:47.462Z,6.00
2023-03-11T00:18:14.466Z,9.00
2023-03-11T00:20:45.422Z,9.40
2023-03-11T00:23:15.160Z,11.60
2023-03-11T00:25:44.619Z,13.00
2023-03-11T00:28:14.806Z,11.40
2023-03-11T00:30:43.546Z,9.67
2023-03-11T00:33:13.121Z,11.00
2023-03-11T00:35:40.518Z,8.50
2023-03-11T00:38:11.843Z,9.50
2023-03-11T00:40:40.246Z,8.00
2023-03-11T00:43:07.131Z,12.00
2023-03-11T00:45:35.965Z,11.40
2023-03-11T00:48:04.845Z,11.00
2023-03-11T00:50:35.727Z,14.00
2023-03-11T00:53:05.903Z,11.80
2023-03-11T00:55:34.825Z,12.00
2023-03-11T00:58:04.271Z,9.00
2023-03-11T01:00:32.149Z,12.00
2023-03-11T01:03:00.695Z,15.00
2023-03-11T01:05:32.847Z,12.00
2023-03-11T01:08:01.444Z,13.67
2023-03-11T01:10:30.224Z,9.00
2023-03-11T01:12:58.530Z,11.67
2023-03-11T01:15:32.378Z,15.50
2023-03-11T01:17:59.762Z,13.00
2023-03-11T01:20:27.098Z,12.50
2023-03-11T01:22:54.338Z,11.50
2023-03-11T01:25:24.458Z,14.00
2023-03-11T01:27:51.628Z,13.00
2023-03-11T01:30:23.365Z,13.00
2023-03-11T01:32:51.529Z,15.00
2023-03-11T01:35:21.603Z,15.00
2023-03-11T01:37:48.443Z,12.50
2023-03-11T01:40:20.567Z,9.00
2023-03-11T01:42:48.848Z,12.00
2023-03-11T01:45:39.653Z,11.00
2023-03-11T01:48:10.484Z,14.00
2023-03-11T01:50:43.625Z,16.00
2023-03-11T01:53:13.979Z,12.00
2023-03-11T01:55:42.748Z,15.00
2023-03-11T01:58:18.205Z,16.00
2023-03-11T02:00:46.870Z,15.33
2023-03-11T02:03:20.856Z,13.00
2023-03-11T02:05:51.620Z,13.67
2023-03-11T02:08:21.374Z,15.67
2023-03-11T02:10:53.614Z,17.60
2023-03-11T02:13:21.091Z,16.00
2023-03-11T02:15:48.201Z,15.00
2023-03-11T02:18:22.253Z,11.50
2023-03-11T02:21:05.134Z,15.50
2023-03-11T02:24:05.043Z,15.20
2023-03-11T02:26:55.213Z,12.00
2023-03-11T02:29:26.950Z,13.80
2023-03-11T02:31:56.491Z,11.33
2023-03-11T02:34:32.933Z,11.80
2023-03-11T02:37:01.202Z,13.00
2023-03-11T02:39:38.430Z,13.00
2023-03-11T02:42:10.772Z,11.00
2023-03-11T02:44:41.430Z,12.67
2023-03-11T02:47:09.676Z,11.50
2023-03-11T02:49:39.404Z,14.67
2023-03-11T02:52:06.522Z,12.00
2023-03-11T02:54:33.984Z,15.00
2023-03-11T02:57:01.678Z,15.00
2023-03-11T02:59:28.756Z,14.50
2023-03-11T03:01:55.615Z,14.00
2023-03-11T03:04:22.521Z,11.50
2023-03-11T03:06:49.493Z,11.00
2023-03-11T03:09:16.545Z,14.00
2023-03-11T03:11:43.521Z,14.00
2023-03-11T03:14:10.485Z,16.00
2023-03-11T03:16:40.030Z,13.17
2023-03-11T03:19:06.900Z,15.00
2023-03-11T03:21:33.763Z,13.00
2023-03-11T03:24:00.708Z,14.00
2023-03-11T03:26:27.662Z,10.50
2023-03-11T03:28:57.219Z,16.17
2023-03-11T03:31:25.066Z,11.50
2023-03-11T03:33:52.891Z,21.33
2023-03-11T03:36:20.735Z,23.33
2023-03-11T03:38:48.426Z,18.67
2023-03-11T03:41:16.703Z,21.00
2023-03-11T03:43:44.430Z,20.67
2023-03-11T03:46:12.068Z,17.67
2023-03-11T03:48:39.950Z,22.33
2023-03-11T03:51:11.789Z,19.67
2023-03-11T03:53:38.824Z,16.50
2023-03-11T03:56:12.474Z,15.67
2023-03-11T03:58:42.234Z,15.50
2023-03-11T04:01:11.615Z,22.33
2023-03-11T04:03:39.870Z,26.00
2023-03-11T04:06:08.136Z,19.50
2023-03-11T04:08:35.877Z,17.00
2023-03-11T04:11:04.349Z,19.67
2023-03-11T04:13:32.204Z,20.00
2023-03-11T04:16:00.087Z,15.00
2023-03-11T04:18:29.575Z,20.00
2023-03-11T04:20:57.301Z,20.33
2023-03-11T04:23:25.034Z,25.00
2023-03-11T04:25:52.926Z,23.67
2023-03-11T04:28:20.898Z,22.67
2023-03-11T04:30:48.738Z,26.00
2023-03-11T04:33:16.511Z,20.00
2023-03-11T04:35:43.687Z,20.50
2023-03-11T04:38:11.577Z,20.67
2023-03-11T04:40:41.134Z,19.50
2023-03-11T04:43:08.742Z,15.00
2023-03-11T04:45:39.559Z,18.00
2023-03-11T04:48:06.597Z,22.00
2023-03-11T04:50:34.367Z,19.00
2023-03-11T04:53:01.293Z,14.50
2023-03-11T04:55:28.894Z,12.00
2023-03-11T04:57:55.715Z,13.50
2023-03-11T05:00:25.212Z,11.00
2023-03-11T05:02:52.998Z,11.00
2023-03-11T05:05:20.733Z,5.00
2023-03-11T05:07:49.211Z,4.00
2023-03-11T05:10:22.506Z,2.67
2023-03-11T05:12:53.278Z,1.00
2023-03-11T05:15:20.177Z,1.67
2023-03-11T05:17:47.222Z,0.00
2023-03-11T05:20:15.746Z,1.00
2023-03-11T05:22:42.868Z,1.00
2023-03-11T05:25:09.757Z,1.00
2023-03-11T05:27:36.565Z,2.00
2023-03-11T05:30:03.768Z,0.00
2023-03-11T05:32:30.504Z,1.00
2023-03-11T05:34:57.172Z,2.00
2023-03-11T05:37:23.946Z,2.67
2023-03-11T05:39:52.195Z,2.00
2023-03-11T05:42:21.299Z,2.00
2023-03-11T05:44:48.251Z,4.33
2023-03-11T05:47:17.133Z,3.33
2023-03-11T05:49:44.089Z,4.00
2023-03-11T05:52:10.770Z,2.00
2023-03-11T05:54:37.897Z,2.67
2023-03-11T05:57:04.875Z,0.00
2023-03-11T05:59:32.788Z,1.00
2023-03-11T06:01:59.471Z,1.00
2023-03-11T06:04:26.389Z,1.00
2023-03-11T06:06:53.813Z,0.00
2023-03-11T06:09:20.577Z,0.33
2023-03-11T06:11:47.366Z,3.00
2023-03-11T06:14:15.090Z,0.00
2023-03-11T06:16:42.385Z,1.00
2023-03-11T06:19:10.012Z,1.00
2023-03-11T06:21:37.065Z,3.67
2023-03-11T06:24:03.971Z,1.00
2023-03-11T06:26:31.406Z,3.00
2023-03-11T06:28:58.389Z,3.67
2023-03-11T06:31:27.656Z,3.00
2023-03-11T06:33:59.043Z,1.00
2023-03-11T06:36:26.488Z,1.00
2023-03-11T06:38:55.360Z,1.00
2023-03-11T06:41:22.353Z,0.33
2023-03-11T06:43:49.580Z,0.00
2023-03-11T06:46:21.903Z,1.00
2023-03-11T06:48:52.439Z,0.67
2023-03-11T06:51:20.703Z,0.00
2023-03-11T06:53:52.522Z,2.33
2023-03-11T06:56:21.425Z,0.67
2023-03-11T06:58:48.643Z,1.00
2023-03-11T07:01:18.567Z,0.33
2023-03-11T07:03:47.908Z,1.00
2023-03-11T07:06:23.422Z,1.67
2023-03-11T07:08:52.454Z,2.33
2023-03-11T07:11:24.773Z,0.00
2023-03-11T07:13:53.725Z,1.00
2023-03-11T07:16:23.930Z,0.00
2023-03-11T07:18:52.097Z,3.00
2023-03-11T07:21:23.422Z,1.67
2023-03-11T07:23:56.309Z,4.50
2023-03-11T07:26:24.765Z,1.00
2023-03-11T07:28:55.116Z,0.00
2023-03-11T07:31:25.462Z,3.00
2023-03-11T07:33:52.876Z,0.00
2023-03-11T07:36:23.060Z,0.00
2023-03-11T07:38:55.810Z,6.00
2023-03-11T07:41:22.570Z,1.00
2023-03-11T07:43:49.528Z,2.33
2023-03-11T07:46:22.818Z,3.67
2023-03-11T07:48:51.424Z,1.00
2023-03-11T07:51:21.443Z,3.00
2023-03-11T07:53:49.588Z,1.00
2023-03-11T07:56:17.425Z,0.00
2023-03-11T07:58:45.907Z,3.00
2023-03-11T08:01:20.142Z,0.00
2023-03-11T08:03:49.913Z,1.00
2023-03-11T08:06:20.196Z,0.67
2023-03-11T08:08:48.107Z,1.67
2023-03-11T08:11:16.187Z,0.33
2023-03-11T08:13:46.753Z,0.00
2023-03-11T08:16:15.952Z,0.00
2023-03-11T08:18:53.037Z,0.33
2023-03-11T08:21:32.169Z,0.00
2023-03-11T08:24:01.361Z,1.00
2023-03-11T08:26:29.031Z,1.00
2023-03-11T08:28:57.414Z,1.00
2023-03-11T08:31:27.549Z,3.00
2023-03-11T08:33:57.979Z,0.33
2023-03-11T08:36:24.914Z,0.00
2023-03-11T08:38:51.785Z,1.00
2023-03-11T08:41:19.588Z,0.00
2023-03-11T08:43:46.613Z,1.00
2023-03-11T08:46:26.007Z,0.00
2023-03-11T08:48:54.286Z,0.00
2023-03-11T08:51:22.364Z,0.67
2023-03-11T08:53:50.074Z,1.33
2023-03-11T08:56:17.529Z,1.00
2023-03-11T08:58:44.547Z,0.67
2023-03-11T09:01:13.326Z,3.00
2023-03-11T09:03:40.607Z,3.00
2023-03-11T09:06:11.655Z,3.00
2023-03-11T09:08:38.374Z,1.67
2023-03-11T09:11:05.760Z,1.00
2023-03-11T09:13:33.216Z,1.00
2023-03-11T09:16:00.004Z,1.00
2023-03-11T09:18:28.736Z,0.33
2023-03-11T09:20:58.609Z,1.00
2023-03-11T09:23:25.578Z,1.00
2023-03-11T09:25:52.491Z,0.00
2023-03-11T09:28:19.416Z,3.00
2023-03-11T09:30:49.730Z,0.33
2023-03-11T09:33:19.001Z,0.33
2023-03-11T09:35:48.397Z,1.00
2023-03-11T09:38:15.302Z,0.00
2023-03-11T09:41:13.376Z,0.33
2023-03-11T09:44:09.664Z,1.00
2023-03-11T09:46:59.839Z,1.00
2023-03-11T09:50:13.262Z,1.67
2023-03-11T09:53:00.543Z,1.00
2023-03-11T09:55:38.520Z,1.00
2023-03-11T09:58:31.734Z,2.33
2023-03-11T10:00:58.928Z,1.00
2023-03-11T10:03:37.396Z,2.33
2023-03-11T10:06:14.286Z,1.00
2023-03-11T10:08:52.844Z,3.67
2023-03-11T10:11:28.581Z,0.67
2023-03-11T10:14:22.336Z,1.00
2023-03-11T10:17:03.570Z,3.00
2023-03-11T10:19:47.498Z,3.33
2023-03-11T10:22:18.450Z,3.50
2023-03-11T10:24:58.664Z,1.00
2023-03-11T10:27:41.597Z,1.00
2023-03-11T10:30:34.563Z,3.00
2023-03-11T10:33:08.065Z,3.00
2023-03-11T10:35:48.576Z,3.00
2023-03-11T10:38:23.199Z,0.00
2023-03-11T10:40:56.834Z,0.67
2023-03-11T10:43:37.732Z,1.00
2023-03-11T10:46:18.704Z,1.00
2023-03-11T10:48:45.637Z,1.00
2023-03-11T10:51:23.086Z,1.00
2023-03-11T10:53:58.574Z,3.67
2023-03-11T10:56:34.035Z,8.50
2023-03-11T10:59:01.833Z,1.00
2023-03-11T11:01:29.856Z,6.00
2023-03-11T11:04:01.083Z,1.00
2023-03-11T11:06:38.204Z,1.00
2023-03-11T11:09:10.983Z,0.67
2023-03-11T11:11:39.740Z,2.00
2023-03-11T11:14:07.692Z,0.00
2023-03-11T11:16:35.511Z,1.00
2023-03-11T11:19:10.830Z,1.00
2023-03-11T11:21:49.664Z,0.00
2023-03-11T11:24:30.094Z,1.00
2023-03-11T11:27:11.805Z,1.00
2023-03-11T11:29:38.970Z,2.00
2023-03-11T11:32:26.377Z,1.00
2023-03-11T11:35:01.199Z,0.33
2023-03-11T11:37:34.359Z,1.00
2023-03-11T11:40:11.611Z,2.00
2023-03-11T11:42:42.781Z,0.67
2023-03-11T11:45:36.502Z,0.33
2023-03-11T11:48:32.095Z,1.25
2023-03-11T11:51:01.698Z,7.00
2023-03-11T11:53:38.950Z,0.00
2023-03-11T11:56:06.154Z,1.00
2023-03-11T11:58:34.350Z,1.00
2023-03-11T12:01:19.866Z,2.00
2023-03-11T12:03:52.978Z,0.00
2023-03-11T12:06:32.294Z,1.00
2023-03-11T12:09:14.985Z,2.00
2023-03-11T12:12:19.431Z,1.00
2023-03-11T12:15:10.788Z,1.00
2023-03-11T12:17:42.441Z,1.00
2023-03-11T12:20:16.515Z,0.00
2023-03-11T12:23:11.188Z,1.00
2023-03-11T12:25:41.797Z,1.00
2023-03-11T12:28:20.648Z,11.00
2023-03-11T12:31:00.764Z,13.50
2023-03-11T12:33:38.656Z,11.50
2023-03-11T12:36:07.956Z,1.00
2023-03-11T12:38:38.898Z,4.00
2023-03-11T12:41:27.586Z,2.00
2023-03-11T12:44:21.452Z,4.00
2023-03-11T12:46:54.935Z,4.00
2023-03-11T12:49:25.367Z,1.33
2023-03-11T12:52:06.045Z,1.33
2023-03-11T12:54:36.901Z,4.50
2023-03-11T13:00:23.960Z,1.00
2023-03-11T13:03:27.942Z,2.00
2023-03-11T13:06:10.172Z,2.00
2023-03-11T13:08:47.896Z,2.67
2023-03-11T13:11:33.800Z,2.50
2023-03-11T13:14:18.709Z,2.00
2023-03-11T13:16:46.647Z,0.00
2023-03-11T13:19:26.222Z,3.00
2023-03-11T13:21:56.410Z,2.00
2023-03-11T13:24:25.745Z,5.67
2023-03-11T13:26:59.641Z,18.33
2023-03-11T13:29:54.384Z,13.00
2023-03-11T13:32:39.885Z,8.00
2023-03-11T13:35:21.838Z,2.00
2023-03-11T13:38:08.008Z,3.50
2023-03-11T13:40:46.472Z,0.67
2023-03-11T13:43:21.866Z,4.00
2023-03-11T13:46:06.891Z,3.50
2023-03-11T13:48:42.287Z,1.00
2023-03-11T13:51:41.448Z,1.33
2023-03-11T13:54:38.457Z,2.00
2023-03-11T13:57:06.707Z,2.50
2023-03-11T13:59:36.466Z,2.00
2023-03-11T14:02:09.201Z,1.67
2023-03-11T14:04:40.239Z,2.00
2023-03-11T14:07:26.957Z,1.00
2023-03-11T14:10:12.244Z,2.00
2023-03-11T14:12:39.808Z,0.50
2023-03-11T14:15:13.976Z,1.33
2023-03-11T14:17:40.657Z,2.00
2023-03-11T14:20:12.428Z,1.33
2023-03-11T14:22:39.541Z,2.67
2023-03-11T14:25:10.236Z,1.00
2023-03-11T14:27:40.793Z,1.00
2023-03-11T14:30:09.706Z,2.00
2023-03-11T14:32:37.611Z,1.00
2023-03-11T14:35:20.583Z,1.00
2023-03-11T14:37:47.358Z,1.00
2023-03-11T14:40:51.520Z,2.50
2023-03-11T14:43:21.278Z,6.00
2023-03-11T14:45:51.416Z,4.25
2023-03-11T14:48:28.910Z,5.00
2023-03-11T14:50:58.979Z,5.00
2023-03-11T14:53:25.848Z,4.00
2023-03-11T14:56:03.424Z,1.00
2023-03-11T14:58:37.342Z,4.00
2023-03-11T15:01:24.283Z,0.67
2023-03-11T15:03:56.724Z,0.33
2023-03-11T15:06:26.982Z,2.00
2023-03-11T15:09:05.280Z,2.00
2023-03-11T15:11:45.408Z,2.00
2023-03-11T15:14:23.048Z,2.67
2023-03-11T15:16:51.465Z,4.00
2023-03-11T15:19:35.108Z,0.00
2023-03-11T15:22:27.288Z,1.00
2023-03-11T15:24:57.808Z,3.67
2023-03-11T15:27:34.059Z,1.00
2023-03-11T15:30:02.762Z,1.00
2023-03-11T15:32:29.418Z,1.00
2023-03-11T15:35:13.082Z,1.00
2023-03-11T15:37:41.367Z,1.00
2023-03-11T15:40:44.139Z,1.00
2023-03-11T15:43:16.010Z,2.50
2023-03-11T15:45:44.172Z,2.00
2023-03-11T15:48:12.470Z,1.33
2023-03-11T15:50:55.554Z,2.00
2023-03-11T15:53:43.130Z,1.00
2023-03-11T15:56:23.343Z,0.00
2023-03-11T15:58:50.646Z,0.33
2023-03-11T16:01:18.594Z,2.00
2023-03-11T16:03:45.328Z,1.00
2023-03-11T16:06:12.081Z,1.00
2023-03-11T16:08:38.852Z,3.00
2023-03-11T16:11:05.799Z,1.00
2023-03-11T16:13:32.587Z,2.33
2023-03-11T16:15:59.573Z,1.33
2023-03-11T16:18:26.827Z,1.00
2023-03-11T16:20:54.530Z,1.00
2023-03-11T16:26:06.906Z,3.00
2023-03-11T16:28:33.770Z,3.00
2023-03-11T16:31:00.593Z,3.00
2023-03-11T16:33:27.494Z,1.00
2023-03-11T16:35:54.333Z,1.00
2023-03-11T16:38:23.403Z,1.00
2023-03-11T16:41:08.214Z,3.00
2023-03-11T16:43:34.961Z,3.00
2023-03-11T16:46:01.796Z,5.33
2023-03-11T16:48:28.698Z,3.00
2023-03-11T16:50:55.498Z,3.00
2023-03-11T16:53:22.318Z,3.00
2023-03-11T16:55:49.223Z,4.00
2023-03-11T16:58:16.371Z,6.67
2023-03-11T17:00:44.632Z,4.00
2023-03-11T17:03:18.223Z,6.00
2023-03-11T17:05:47.998Z,4.00
2023-03-11T17:08:16.421Z,3.00
2023-03-11T17:10:45.665Z,4.67
2023-03-11T17:13:14.038Z,3.00
2023-03-11T17:15:44.561Z,24.40
2023-03-11T17:18:12.557Z,5.33
2023-03-11T17:20:40.403Z,1.00
2023-03-11T17:23:07.752Z,5.33
2023-03-11T17:25:34.575Z,3.00
2023-03-11T17:28:01.336Z,1.00
2023-03-11T17:30:36.856Z,1.00
2023-03-11T17:33:04.671Z,5.00
2023-03-11T17:35:32.509Z,4.50
2023-03-11T17:37:59.358Z,4.00
2023-03-11T17:40:27.208Z,3.67
2023-03-11T17:42:54.179Z,4.00
2023-03-11T17:45:21.861Z,5.00
2023-03-11T17:47:49.589Z,3.00
2023-03-11T17:50:17.200Z,6.00
2023-03-11T17:52:46.804Z,1.00
2023-03-11T17:55:13.990Z,0.00
2023-03-11T17:57:45.446Z,3.00
2023-03-11T18:00:15.154Z,3.00
2023-03-11T18:02:42.347Z,1.00
2023-03-11T18:05:09.524Z,6.33
2023-03-11T18:07:41.180Z,1.00
2023-03-11T18:10:08.679Z,5.00
2023-03-11T18:12:35.618Z,6.67
2023-03-11T18:15:06.299Z,3.00
2023-03-11T18:17:35.383Z,7.00
2023-03-11T18:20:02.558Z,3.00
2023-03-11T18:22:29.546Z,4.67
2023-03-11T18:24:56.636Z,8.00
2023-03-11T18:27:24.689Z,4.00
2023-03-11T18:29:52.161Z,3.00
2023-03-11T18:32:21.049Z,6.00
2023-03-11T18:34:51.592Z,3.00
2023-03-11T18:37:18.877Z,3.33
2023-03-11T18:39:45.665Z,3.00
2023-03-11T18:42:14.056Z,6.00
2023-03-11T18:44:42.165Z,3.33
2023-03-11T18:47:09.143Z,3.33
2023-03-11T18:49:37.241Z,3.67
2023-03-11T18:52:05.294Z,5.50
2023-03-11T18:54:32.244Z,4.00
2023-03-11T18:56:59.076Z,6.00
2023-03-11T18:59:29.654Z,4.00
2023-03-11T19:01:56.576Z,4.00
2023-03-11T19:04:23.480Z,3.00
2023-03-11T19:06:50.275Z,4.00
2023-03-11T19:09:20.585Z,5.33
2023-03-11T19:11:47.592Z,5.33
2023-03-11T19:14:15.311Z,4.00
2023-03-11T19:16:43.193Z,4.00
2023-03-11T19:19:11.960Z,6.00
2023-03-11T19:21:38.870Z,1.00
2023-03-11T19:24:06.138Z,6.00
2023-03-11T19:26:44.660Z,4.00
2023-03-11T19:29:13.705Z,3.33
2023-03-11T19:31:43.537Z,1.50
2023-03-11T19:34:10.582Z,4.67
2023-03-11T19:36:37.606Z,2.33
2023-03-11T19:39:04.489Z,1.00
2023-03-11T19:41:31.390Z,6.33
2023-03-11T19:43:58.257Z,4.00
2023-03-11T19:46:25.321Z,6.00
2023-03-11T19:48:56.935Z,4.00
2023-03-11T19:51:25.316Z,3.00
2023-03-11T19:53:53.846Z,3.33
2023-03-11T19:56:20.778Z,3.00
2023-03-11T19:58:47.518Z,3.00
2023-03-11T20:01:21.611Z,3.67
2023-03-11T20:03:48.609Z,3.00
2023-03-11T20:06:20.048Z,3.00
2023-03-11T20:08:47.124Z,3.00
2023-03-11T20:11:15.352Z,3.25
2023-03-11T20:13:51.653Z,3.33
2023-03-11T20:16:19.657Z,3.67
2023-03-11T20:18:50.973Z,7.00
2023-03-11T20:21:18.041Z,3.67
2023-03-11T20:23:45.495Z,6.33
2023-03-11T20:26:14.974Z,4.00
2023-03-11T20:28:42.307Z,6.00
2023-03-11T20:31:21.052Z,3.00
2023-03-11T20:33:49.380Z,3.00
2023-03-11T20:36:20.667Z,4.00
2023-03-11T20:38:49.221Z,3.00
2023-03-11T20:41:16.020Z,5.33
2023-03-11T20:43:43.425Z,3.33
2023-03-11T20:46:11.725Z,5.33
2023-03-11T20:48:39.297Z,4.00
2023-03-11T20:51:09.162Z,5.33
2023-03-11T20:53:36.782Z,6.00
2023-03-11T20:56:09.626Z,5.33
2023-03-11T20:58:36.506Z,3.00
2023-03-11T21:01:23.192Z,3.33
2023-03-11T21:03:52.294Z,3.67
2023-03-11T21:06:25.522Z,4.67
2023-03-11T21:08:56.809Z,5.33
2023-03-11T21:11:24.905Z,6.33
2023-03-11T21:13:52.886Z,6.67
2023-03-11T21:16:20.438Z,6.00
2023-03-11T21:18:49.535Z,6.67
2023-03-11T21:21:18.057Z,7.00
2023-03-11T21:23:45.791Z,6.33
2023-03-11T21:26:16.373Z,12.50
2023-03-11T21:28:47.140Z,19.00
2023-03-11T21:31:18.672Z,16.00
2023-03-11T21:33:46.186Z,13.00
2023-03-11T21:36:14.822Z,12.50
2023-03-11T21:38:42.814Z,11.00
2023-03-11T21:41:16.641Z,8.50
2023-03-11T21:43:44.602Z,4.00
2023-03-11T21:46:15.833Z,4.00
2023-03-11T21:48:43.757Z,9.00
2023-03-11T21:51:10.861Z,7.67
2023-03-11T21:53:38.161Z,7.00
2023-03-11T21:56:05.408Z,6.67
2023-03-11T21:58:33.332Z,14.00
2023-03-11T22:01:01.022Z,6.67
2023-03-11T22:03:28.900Z,9.00
2023-03-11T22:05:57.797Z,7.00
2023-03-11T22:08:25.414Z,7.67
2023-03-11T22:10:52.526Z,10.00
2023-03-11T22:13:20.525Z,8.33
2023-03-11T22:15:48.061Z,7.67
2023-03-11T22:18:15.089Z,6.33
2023-03-11T22:20:43.275Z,4.67
2023-03-11T22:23:10.624Z,12.33
2023-03-11T22:25:37.852Z,9.00
2023-03-11T22:28:05.805Z,10.00
2023-03-11T22:30:32.638Z,7.00
2023-03-11T22:32:59.533Z,4.00
2023-03-11T22:35:26.270Z,9.33
2023-03-11T22:37:53.273Z,7.00
2023-03-11T22:40:20.295Z,6.67
2023-03-11T22:42:47.120Z,4.00
2023-03-11T22:45:15.112Z,8.50
2023-03-11T22:47:41.861Z,1.00
2023-03-11T22:50:10.088Z,7.00
2023-03-11T22:52:37.030Z,7.00
2023-03-11T22:55:04.233Z,11.33
2023-03-11T22:57:38.694Z,4.00
2023-03-11T23:00:17.229Z,4.00
2023-03-11T23:02:45.780Z,6.00
2023-03-11T23:05:14.771Z,6.33
2023-03-11T23:07:42.106Z,5.33
2023-03-11T23:10:11.694Z,5.33
2023-03-11T23:12:39.711Z,4.00
2023-03-11T23:15:10.684Z,7.00
2023-03-11T23:17:37.426Z,6.00
2023-03-11T23:20:06.183Z,4.00
2023-03-11T23:22:37.422Z,7.00
2023-03-11T23:25:08.339Z,6.00
2023-03-11T23:27:35.617Z,7.00
2023-03-11T23:30:04.490Z,9.50
2023-03-11T23:32:32.279Z,10.75
2023-03-11T23:34:59.092Z,7.00
2023-03-11T23:37:26.028Z,7.00
2023-03-11T23:39:52.905Z,6.00
2023-03-11T23:42:25.819Z,6.67
2023-03-11T23:44:54.125Z,8.33
2023-03-11T23:47:21.301Z,7.67
2023-03-11T23:49:48.027Z,7.00
2023-03-11T23:52:14.771Z,3.33
2023-03-11T23:54:42.008Z,4.67
2023-03-11T23:57:08.922Z,4.67
2023-03-11T23:59:35.926Z,5.33
